Time;durP1;ratioP1;P1;durP2;ratioP2;P2;SDS_P1;SDS_P2;PMS_P1;PMS_P2;Temp;Humidity;BMP_temperature;BMP_pressure;BME280_temperature;BME280_humidity;BME280_pressure;Samples;Min_cycle;Max_cycle;Signal;HPM_P1;HPM_P2
2023/07/02 00:04:03;;;;;;;8.70;6.35;;;;;;;;;;10054231;28;20041;-57
2023/07/02 00:08:55;;;;;;;7.88;6.30;;;;;;;;;;10069421;28;20045;-56
2023/07/02 00:13:47;;;;;;;11.25;6.75;;;;;;;;;;10069764;28;20104;-56
2023/07/02 00:18:39;;;;;;;6.80;5.47;;;;;;;;;;10068255;28;20041;-55
2023/07/02 00:23:31;;;;;;;7.70;5.82;;;;;;;;;;10065738;28;20041;-55
2023/07/02 00:28:23;;;;;;;6.25;5.60;;;;;;;;;;10068221;28;20418;-56
2023/07/02 00:33:15;;;;;;;8.25;6.90;;;;;;;;;;10044662;28;20089;-55
2023/07/02 00:38:07;;;;;;;7.70;5.63;;;;;;;;;;10058646;28;20076;-55
2023/07/02 00:43:00;;;;;;;6.53;5.43;;;;;;;;;;10054870;28;20376;-55
2023/07/02 00:47:54;;;;;;;7.85;6.22;;;;;;;;;;10056716;28;20100;-56
2023/07/02 00:52:46;;;;;;;7.25;6.55;;;;;;;;;;10121720;28;20056;-55
2023/07/02 00:57:40;;;;;;;11.02;6.20;;;;;;;;;;10147654;28;20044;-53
2023/07/02 01:02:32;;;;;;;7.22;6.13;;;;;;;;;;10124919;28;20044;-56
2023/07/02 01:07:24;;;;;;;6.80;5.22;;;;;;;;;;10139076;28;20137;-55
2023/07/02 01:12:17;;;;;;;6.15;5.60;;;;;;;;;;10147244;28;20048;-56
2023/07/02 01:17:10;;;;;;;6.65;5.22;;;;;;;;;;10147208;28;20037;-56
2023/07/02 01:22:02;;;;;;;13.02;5.20;;;;;;;;;;10129072;28;20052;-53
2023/07/02 01:26:56;;;;;;;5.13;4.38;;;;;;;;;;10118594;28;20045;-56
2023/07/02 01:31:48;;;;;;;9.25;5.38;;;;;;;;;;10095176;28;20080;-57
2023/07/02 01:36:40;;;;;;;6.60;4.68;;;;;;;;;;10088495;28;20352;-56
2023/07/02 01:41:38;;;;;;;5.82;3.88;;;;;;;;;;10103738;28;20099;-56
2023/07/02 01:46:30;;;;;;;;;;;;;;;;;;10107378;28;20072;-56
2023/07/02 01:51:22;;;;;;;6.30;4.00;;;;;;;;;;10091386;28;19921;-56
2023/07/02 01:56:14;;;;;;;6.60;4.25;;;;;;;;;;10104084;28;20037;-56
2023/07/02 02:01:06;;;;;;;5.45;3.90;;;;;;;;;;10054961;28;20081;-52
2023/07/02 02:05:57;;;;;;;5.93;4.20;;;;;;;;;;10063501;28;20056;-51
2023/07/02 02:10:49;;;;;;;5.05;4.43;;;;;;;;;;10062977;28;20077;-55
2023/07/02 02:15:41;;;;;;;5.63;4.25;;;;;;;;;;10061771;28;20464;-55
2023/07/02 02:20:33;;;;;;;4.40;4.00;;;;;;;;;;10063162;28;20042;-55
2023/07/02 02:25:25;;;;;;;4.55;3.80;;;;;;;;;;10063126;28;20049;-55
2023/07/02 02:30:17;;;;;;;4.43;4.03;;;;;;;;;;10064024;28;20095;-51
2023/07/02 02:35:09;;;;;;;6.10;4.72;;;;;;;;;;10063463;28;20487;-56
2023/07/02 02:40:03;;;;;;;4.63;3.70;;;;;;;;;;10063210;28;20037;-56
2023/07/02 02:44:55;;;;;;;5.45;4.10;;;;;;;;;;10062368;28;20049;-53
2023/07/02 02:49:47;;;;;;;6.15;3.85;;;;;;;;;;10048029;28;20056;-55
2023/07/02 02:54:39;;;;;;;4.45;3.88;;;;;;;;;;10080786;28;20042;-56
2023/07/02 02:59:31;;;;;;;5.80;4.00;;;;;;;;;;10095020;28;20052;-55
2023/07/02 03:04:25;;;;;;;5.78;3.95;;;;;;;;;;10067653;28;20136;-53
2023/07/02 03:09:18;;;;;;;5.85;4.18;;;;;;;;;;10052705;28;20204;-54
2023/07/02 03:14:09;;;;;;;5.13;4.32;;;;;;;;;;10092229;28;20072;-56
2023/07/02 03:19:01;;;;;;;4.75;4.13;;;;;;;;;;10108665;28;20435;-56
2023/07/02 03:23:53;;;;;;;4.82;4.07;;;;;;;;;;10106973;28;20533;-55
2023/07/02 03:28:45;;;;;;;4.75;4.05;;;;;;;;;;10109009;28;20063;-56
2023/07/02 03:33:37;;;;;;;5.05;4.18;;;;;;;;;;10108181;28;20049;-56
2023/07/02 03:38:29;;;;;;;4.65;4.15;;;;;;;;;;10107276;28;20060;-55
2023/07/02 03:43:20;;;;;;;4.30;3.90;;;;;;;;;;10107162;28;20072;-56
2023/07/02 03:48:12;;;;;;;6.03;3.90;;;;;;;;;;10092273;28;20140;-54
2023/07/02 03:53:04;;;;;;;4.82;4.00;;;;;;;;;;10118263;28;20049;-56
2023/07/02 03:57:56;;;;;;;6.50;3.97;;;;;;;;;;10147319;28;20523;-54
2023/07/02 04:02:48;;;;;;;4.93;3.83;;;;;;;;;;10136629;28;20541;-55
2023/07/02 04:07:40;;;;;;;5.03;3.65;;;;;;;;;;10107501;28;20049;-56
2023/07/02 04:12:31;;;;;;;4.13;3.60;;;;;;;;;;10108142;28;20057;-56
2023/07/02 04:17:23;;;;;;;5.72;4.18;;;;;;;;;;10105460;28;20425;-55
2023/07/02 04:22:15;;;;;;;7.22;4.38;;;;;;;;;;10146242;28;20048;-54
2023/07/02 04:27:07;;;;;;;4.10;3.65;;;;;;;;;;10146752;28;20051;-55
2023/07/02 04:32:19;;;;;;;5.25;4.13;;;;;;;;;;10132490;28;20037;-55
2023/07/02 04:37:11;;;;;;;4.20;3.72;;;;;;;;;;10143611;28;20048;-56
2023/07/02 04:42:03;;;;;;;4.38;3.97;;;;;;;;;;10110525;28;20128;-54
2023/07/02 04:46:59;;;;;;;4.55;3.85;;;;;;;;;;10143409;28;20454;-55
2023/07/02 04:51:53;;;;;;;4.20;3.80;;;;;;;;;;10144077;28;20048;-51
2023/07/02 04:56:45;;;;;;;4.78;3.75;;;;;;;;;;10146434;28;20079;-55
2023/07/02 05:01:37;;;;;;;4.65;4.22;;;;;;;;;;10117033;28;20413;-55
2023/07/02 05:06:28;;;;;;;3.88;3.58;;;;;;;;;;10144825;28;20083;-55
2023/07/02 05:11:20;;;;;;;4.22;3.83;;;;;;;;;;10144248;28;20059;-55
2023/07/02 05:16:13;;;;;;;4.93;4.40;;;;;;;;;;10118126;28;20139;-55
2023/07/02 05:21:05;;;;;;;3.35;3.05;;;;;;;;;;10104728;28;20044;-55
2023/07/02 05:25:56;;;;;;;5.65;4.38;;;;;;;;;;10104852;28;20118;-55
2023/07/02 05:30:48;;;;;;;3.97;3.58;;;;;;;;;;10106794;28;20053;-54
2023/07/02 05:35:41;;;;;;;3.80;3.30;;;;;;;;;;10138488;28;20045;-55
2023/07/02 05:40:33;;;;;;;4.20;3.55;;;;;;;;;;10144813;28;20044;-55
2023/07/02 05:45:27;;;;;;;5.22;3.92;;;;;;;;;;10144524;28;20044;-55
2023/07/02 05:50:19;;;;;;;4.20;3.80;;;;;;;;;;10141759;28;20106;-50
2023/07/02 05:55:11;;;;;;;3.92;3.50;;;;;;;;;;10143488;28;20560;-55
2023/07/02 06:00:05;;;;;;;4.15;3.25;;;;;;;;;;10143268;28;20041;-55
2023/07/02 06:05:02;;;;;;;6.35;3.80;;;;;;;;;;10142752;28;20049;-55
2023/07/02 06:09:54;;;;;;;4.00;3.45;;;;;;;;;;10144968;28;20084;-54
2023/07/02 06:14:46;;;;;;;3.53;3.22;;;;;;;;;;10144618;28;20111;-55
2023/07/02 06:19:38;;;;;;;4.25;3.40;;;;;;;;;;10129217;28;20076;-55
2023/07/02 06:24:30;;;;;;;4.57;3.97;;;;;;;;;;10116419;28;20070;-55
2023/07/02 06:29:23;;;;;;;4.03;3.60;;;;;;;;;;10148743;28;20091;-56
2023/07/02 06:34:16;;;;;;;3.90;3.50;;;;;;;;;;10151425;28;20052;-55
2023/07/02 06:39:09;;;;;;;3.83;3.30;;;;;;;;;;10118009;28;20036;-56
2023/07/02 06:44:01;;;;;;;4.95;3.42;;;;;;;;;;10147882;28;20049;-55
2023/07/02 06:48:53;;;;;;;4.18;3.75;;;;;;;;;;10142325;28;20056;-50
2023/07/02 06:53:45;;;;;;;3.83;3.42;;;;;;;;;;10132255;28;20102;-54
2023/07/02 06:58:37;;;;;;;3.78;3.40;;;;;;;;;;10151913;28;20355;-56
2023/07/02 07:03:29;;;;;;;3.78;3.33;;;;;;;;;;10131730;28;20122;-56
2023/07/02 07:08:21;;;;;;;3.65;3.22;;;;;;;;;;10149844;28;20047;-55
2023/07/02 07:13:12;;;;;;;5.47;3.97;;;;;;;;;;10142321;28;20105;-55
2023/07/02 07:18:04;;;;;;;4.25;3.53;;;;;;;;;;10145719;28;20048;-55
2023/07/02 07:22:57;;;;;;;4.68;3.60;;;;;;;;;;10116026;28;20080;-55
2023/07/02 07:27:49;;;;;;;3.85;3.47;;;;;;;;;;10110211;28;20045;-55
2023/07/02 07:32:41;;;;;;;3.90;3.33;;;;;;;;;;10131534;28;20048;-56
2023/07/02 07:37:33;;;;;;;4.45;4.05;;;;;;;;;;10113360;28;20045;-53
2023/07/02 07:42:25;;;;;;;3.85;3.53;;;;;;;;;;10140915;28;20049;-55
2023/07/02 07:47:17;;;;;;;4.15;3.63;;;;;;;;;;10120355;28;20053;-55
2023/07/02 07:52:08;;;;;;;3.58;3.17;;;;;;;;;;10086740;28;20513;-49
2023/07/02 07:57:01;;;;;;;4.38;3.50;;;;;;;;;;10070367;28;20479;-54
2023/07/02 08:01:53;;;;;;;4.20;3.80;;;;;;;;;;10052358;28;20467;-49
2023/07/02 08:06:45;;;;;;;3.80;3.33;;;;;;;;;;10056659;28;20044;-49
2023/07/02 08:11:37;;;;;;;4.53;3.90;;;;;;;;;;10070105;28;20051;-49
2023/07/02 08:16:29;;;;;;;4.80;4.40;;;;;;;;;;10068880;28;20049;-48
2023/07/02 08:21:20;;;;;;;8.52;5.55;;;;;;;;;;10069212;28;20475;-50
2023/07/02 08:26:13;;;;;;;4.97;4.47;;;;;;;;;;10068714;28;20103;-50
2023/07/02 08:31:06;;;;;;;5.07;4.13;;;;;;;;;;10068799;28;20049;-50
2023/07/02 08:46:56;;;;;;;4.75;4.35;;;;;;;;;;10103042;28;20390;-48
2023/07/02 08:51:48;;;;;;;7.20;4.72;;;;;;;;;;10100851;28;20379;-49
2023/07/02 08:56:40;;;;;;;9.88;5.15;;;;;;;;;;10102291;28;20049;-48
2023/07/02 09:01:32;;;;;;;6.05;5.45;;;;;;;;;;10098871;28;20041;-50
2023/07/02 09:06:24;;;;;;;13.95;7.88;;;;;;;;;;10100215;28;20055;-49
2023/07/02 09:11:19;;;;;;;13.65;7.97;;;;;;;;;;10099155;28;20479;-46
2023/07/02 09:16:21;;;;;;;9.32;6.75;;;;;;;;;;10100515;28;20037;-48
2023/07/02 09:21:13;;;;;;;12.80;6.82;;;;;;;;;;10099597;28;20042;-48
2023/07/02 09:26:05;;;;;;;10.32;6.30;;;;;;;;;;10100426;28;20419;-45
2023/07/02 09:30:58;;;;;;;9.05;6.65;;;;;;;;;;10100069;28;20037;-47
2023/07/02 09:35:51;;;;;;;10.30;5.80;;;;;;;;;;10100515;28;20124;-45
2023/07/02 09:40:46;;;;;;;11.38;6.97;;;;;;;;;;10097558;28;20049;-44
2023/07/02 09:45:43;;;;;;;12.85;6.95;;;;;;;;;;10099576;28;20053;-48
2023/07/02 09:50:37;;;;;;;12.18;7.72;;;;;;;;;;10099471;28;20049;-45
2023/07/02 09:55:29;;;;;;;9.90;6.47;;;;;;;;;;10087769;28;20041;-45
2023/07/02 10:00:21;;;;;;;7.97;7.18;;;;;;;;;;10072253;28;20419;-42
2023/07/02 10:05:27;;;;;;;10.55;7.68;;;;;;;;;;10072293;28;20115;-47
2023/07/02 10:10:30;;;;;;;10.55;8.13;;;;;;;;;;10071672;28;20049;-48
2023/07/02 10:15:27;;;;;;;8.88;8.00;;;;;;;;;;10071231;28;20053;-47
2023/07/02 10:20:18;;;;;;;9.48;7.07;;;;;;;;;;10069446;28;20057;-47
2023/07/02 10:25:10;;;;;;;8.55;7.75;;;;;;;;;;10070349;28;20056;-47
2023/07/02 10:30:05;;;;;;;8.35;7.55;;;;;;;;;;10068576;28;20084;-48
2023/07/02 10:34:58;;;;;;;8.75;7.95;;;;;;;;;;10070662;28;20044;-48
2023/07/02 10:39:51;;;;;;;8.23;7.50;;;;;;;;;;10069754;28;20089;-49
2023/07/02 10:44:52;;;;;;;8.18;6.85;;;;;;;;;;10070170;28;20057;-48
2023/07/02 10:49:43;;;;;;;8.13;7.32;;;;;;;;;;10070552;28;20041;-45
2023/07/02 10:54:48;;;;;;;7.78;7.00;;;;;;;;;;10071709;28;20053;-46
2023/07/02 10:59:40;;;;;;;7.70;6.97;;;;;;;;;;10075181;28;20474;-48
2023/07/02 11:04:33;;;;;;;10.10;8.73;;;;;;;;;;10072800;28;20068;-47
2023/07/02 11:09:25;;;;;;;9.60;7.88;;;;;;;;;;10067646;28;20431;-47
2023/07/02 11:14:35;;;;;;;11.93;7.55;;;;;;;;;;10067427;28;20049;-46
2023/07/02 11:19:27;;;;;;;12.55;8.05;;;;;;;;;;10062896;28;20045;-47
2023/07/02 11:24:36;;;;;;;10.07;6.90;;;;;;;;;;10061745;28;20383;-47
2023/07/02 11:29:29;;;;;;;8.85;7.28;;;;;;;;;;10052721;28;20076;-44
2023/07/02 11:34:22;;;;;;;8.77;7.57;;;;;;;;;;10065143;28;20445;-45
2023/07/02 11:39:16;;;;;;;7.35;6.47;;;;;;;;;;10075083;28;20135;-47
2023/07/02 11:44:08;;;;;;;16.73;7.43;;;;;;;;;;10073657;28;20469;-47
2023/07/02 11:49:01;;;;;;;11.63;6.63;;;;;;;;;;10059627;28;20057;-43
2023/07/02 11:53:52;;;;;;;9.48;7.75;;;;;;;;;;10052233;28;20049;-46
2023/07/02 11:58:44;;;;;;;10.43;7.35;;;;;;;;;;10059615;28;20053;-47
2023/07/02 12:03:36;;;;;;;8.10;7.40;;;;;;;;;;10037967;28;20130;-49
2023/07/02 12:08:28;;;;;;;8.82;7.28;;;;;;;;;;10052919;28;20502;-49
2023/07/02 12:13:23;;;;;;;7.53;6.82;;;;;;;;;;10061187;28;20115;-47
2023/07/02 12:18:15;;;;;;;7.88;7.18;;;;;;;;;;10040948;28;20463;-47
2023/07/02 12:23:07;;;;;;;8.25;7.13;;;;;;;;;;10032566;28;20467;-44
2023/07/02 12:27:58;;;;;;;9.07;6.88;;;;;;;;;;10063403;28;20423;-48
2023/07/02 12:32:50;;;;;;;8.50;7.65;;;;;;;;;;10061662;28;20088;-47
2023/07/02 12:37:44;;;;;;;10.60;6.95;;;;;;;;;;10052894;28;20043;-46
2023/07/02 12:42:36;;;;;;;8.23;7.40;;;;;;;;;;10050262;28;20049;-44
2023/07/02 12:47:27;;;;;;;7.75;7.05;;;;;;;;;;10064506;28;20069;-45
2023/07/02 12:52:19;;;;;;;7.70;7.00;;;;;;;;;;10045452;28;20052;-44
2023/07/02 12:57:11;;;;;;;8.13;7.40;;;;;;;;;;10064852;28;20071;-45
2023/07/02 13:02:03;;;;;;;7.65;6.93;;;;;;;;;;10074739;28;20041;-44
2023/07/02 13:06:56;;;;;;;7.93;6.60;;;;;;;;;;10068822;28;20041;-45
2023/07/02 13:11:47;;;;;;;7.53;6.80;;;;;;;;;;10083437;28;20427;-45
2023/07/02 13:16:39;;;;;;;7.43;6.82;;;;;;;;;;10074103;28;20049;-43
2023/07/02 13:21:31;;;;;;;7.72;7.03;;;;;;;;;;10067053;28;20041;-43
2023/07/02 13:26:23;;;;;;;7.78;6.63;;;;;;;;;;10069942;28;20062;-43
2023/07/02 13:31:15;;;;;;;8.35;7.55;;;;;;;;;;10077958;28;20424;-47
2023/07/02 13:36:08;;;;;;;7.47;6.78;;;;;;;;;;10070500;28;20048;-49
2023/07/02 13:41:00;;;;;;;7.72;6.97;;;;;;;;;;10079589;28;20041;-46
2023/07/02 13:45:52;;;;;;;9.32;7.80;;;;;;;;;;10062978;28;20057;-45
2023/07/02 13:50:44;;;;;;;8.27;7.47;;;;;;;;;;10066754;28;20041;-46
2023/07/02 13:55:36;;;;;;;8.68;6.85;;;;;;;;;;10069471;28;20080;-47
2023/07/02 14:00:28;;;;;;;8.70;7.82;;;;;;;;;;10057325;28;20041;-47
2023/07/02 14:05:20;;;;;;;9.00;8.00;;;;;;;;;;10050674;28;20059;-57
2023/07/02 14:10:13;;;;;;;8.80;7.90;;;;;;;;;;10077326;28;20046;-57
2023/07/02 14:15:05;;;;;;;7.25;6.55;;;;;;;;;;10058841;28;20507;-51
2023/07/02 14:19:57;;;;;;;15.07;8.63;;;;;;;;;;10073542;28;20132;-52
2023/07/02 14:24:49;;;;;;;10.75;7.80;;;;;;;;;;10083966;28;20069;-56
2023/07/02 14:29:41;;;;;;;18.15;7.75;;;;;;;;;;10100078;28;20053;-57
2023/07/02 14:34:33;;;;;;;14.43;7.97;;;;;;;;;;10055642;28;20046;-57
2023/07/02 14:39:25;;;;;;;12.15;6.97;;;;;;;;;;10029827;28;20042;-56
2023/07/02 14:44:17;;;;;;;13.40;7.40;;;;;;;;;;10068953;28;20049;-56
2023/07/02 14:49:09;;;;;;;17.75;7.63;;;;;;;;;;10059519;28;20081;-56
2023/07/02 14:54:03;;;;;;;12.77;7.55;;;;;;;;;;10044331;28;20120;-57
2023/07/02 14:58:55;;;;;;;12.65;7.18;;;;;;;;;;10070642;28;20045;-56
2023/07/02 15:03:47;;;;;;;8.00;7.20;;;;;;;;;;10070322;28;20092;-56
2023/07/02 15:08:40;;;;;;;18.60;7.45;;;;;;;;;;10070053;28;20053;-56
2023/07/02 15:13:32;;;;;;;9.05;6.53;;;;;;;;;;10069687;28;20072;-57
2023/07/02 15:18:25;;;;;;;10.55;7.07;;;;;;;;;;10058467;28;20133;-57
2023/07/02 15:23:17;;;;;;;13.10;6.97;;;;;;;;;;10067395;28;20045;-57
2023/07/02 15:28:09;;;;;;;10.45;7.85;;;;;;;;;;10057768;28;20424;-56
2023/07/02 15:33:01;;;;;;;7.45;6.75;;;;;;;;;;10053713;28;20053;-57
2023/07/02 15:37:52;;;;;;;7.57;6.88;;;;;;;;;;10056356;28;20054;-56
2023/07/02 15:42:44;;;;;;;7.07;6.38;;;;;;;;;;10056373;28;20140;-47
2023/07/02 15:47:36;;;;;;;8.43;7.63;;;;;;;;;;10067106;28;20114;-47
2023/07/02 15:52:28;;;;;;;8.35;7.65;;;;;;;;;;10046115;28;20517;-48
2023/07/02 15:57:20;;;;;;;14.90;10.05;;;;;;;;;;10063787;28;20054;-47
2023/07/02 16:02:12;;;;;;;8.20;7.20;;;;;;;;;;10037028;28;20099;-48
2023/07/02 16:07:04;;;;;;;7.82;7.10;;;;;;;;;;10045622;28;20053;-45
2023/07/02 16:11:56;;;;;;;8.20;6.85;;;;;;;;;;10055195;28;20160;-47
2023/07/02 16:16:53;;;;;;;10.57;7.40;;;;;;;;;;10069625;28;20033;-48
2023/07/02 16:21:47;;;;;;;6.70;6.10;;;;;;;;;;10073976;28;20049;-46
2023/07/02 16:26:39;;;;;;;8.82;7.40;;;;;;;;;;10061202;28;20064;-47
2023/07/02 16:31:31;;;;;;;14.30;8.90;;;;;;;;;;10057222;28;20053;-48
2023/07/02 16:36:23;;;;;;;22.40;9.35;;;;;;;;;;10065688;28;20050;-47
2023/07/02 16:41:14;;;;;;;26.45;10.60;;;;;;;;;;10051866;28;20041;-47
2023/07/02 16:46:06;;;;;;;16.23;9.07;;;;;;;;;;10057319;28;20053;-48
2023/07/02 16:51:05;;;;;;;18.08;10.05;;;;;;;;;;10055416;28;20076;-48
2023/07/02 16:55:59;;;;;;;11.15;8.85;;;;;;;;;;10033522;28;20526;-49
2023/07/02 17:00:53;;;;;;;10.10;7.38;;;;;;;;;;10057247;28;20043;-48
2023/07/02 17:05:45;;;;;;;11.68;8.32;;;;;;;;;;10066528;28;20060;-48
2023/07/02 17:10:37;;;;;;;9.18;7.18;;;;;;;;;;10061569;28;20046;-49
2023/07/02 17:15:29;;;;;;;16.17;9.55;;;;;;;;;;10066369;28;20041;-46
2023/07/02 17:20:21;;;;;;;8.20;6.93;;;;;;;;;;10058676;28;21560;-48
2023/07/02 17:25:13;;;;;;;10.55;7.72;;;;;;;;;;10073056;28;20468;-48
2023/07/02 17:30:07;;;;;;;7.57;6.88;;;;;;;;;;10073636;28;20091;-51
2023/07/02 17:34:59;;;;;;;7.50;6.57;;;;;;;;;;10073475;28;20084;-49
2023/07/02 17:39:52;;;;;;;8.05;6.22;;;;;;;;;;10073132;28;20081;-49
2023/07/02 17:44:45;;;;;;;7.38;6.65;;;;;;;;;;10072931;28;20053;-50
2023/07/02 17:49:40;;;;;;;10.45;6.50;;;;;;;;;;10047008;28;20103;-50
2023/07/02 17:54:44;;;;;;;7.00;6.40;;;;;;;;;;10059426;28;20045;-47
2023/07/02 17:59:37;;;;;;;7.43;6.72;;;;;;;;;;10044494;28;20065;-46
2023/07/02 18:04:28;;;;;;;27.15;8.65;;;;;;;;;;10070080;28;20423;-57
2023/07/02 18:09:21;;;;;;;6.57;5.97;;;;;;;;;;10069242;28;20056;-57
2023/07/02 18:14:14;;;;;;;6.72;6.13;;;;;;;;;;10050821;28;20467;-57
